sensor_id;sensor_type;location;lat;lon;timestamp;temperature;humidity
18444;DHT22;9350;53.176;8.194;2022-07-15T00:00:00;14.90;99.90
18444;DHT22;9350;53.176;8.194;2022-07-15T00:02:27;14.90;99.90
18444;DHT22;9350;53.176;8.194;2022-07-15T00:04:54;14.90;99.90
18444;DHT22;9350;53.176;8.194;2022-07-15T00:07:21;15.00;99.90
18444;DHT22;9350;53.176;8.194;2022-07-15T00:09:48;15.00;99.90
18444;DHT22;9350;53.176;8.194;2022-07-15T00:12:33;15.00;99.90
18444;DHT22;9350;53.176;8.194;2022-07-15T00:15:01;14.90;99.90
18444;DHT22;9350;53.176;8.194;2022-07-15T00:17:28;15.00;99.90
18444;DHT22;9350;53.176;8.194;2022-07-15T00:19:55;15.00;99.90
18444;DHT22;9350;53.176;8.194;2022-07-15T00:22:21;15.00;99.90
18444;DHT22;9350;53.176;8.194;2022-07-15T00:24:48;15.10;99.90
18444;DHT22;9350;53.176;8.194;2022-07-15T00:27:15;15.20;99.90
18444;DHT22;9350;53.176;8.194;2022-07-15T00:29:42;15.20;99.90
18444;DHT22;9350;53.176;8.194;2022-07-15T00:32:10;15.20;99.90
18444;DHT22;9350;53.176;8.194;2022-07-15T00:34:37;15.30;99.90
18444;DHT22;9350;53.176;8.194;2022-07-15T00:37:04;15.40;99.90
18444;DHT22;9350;53.176;8.194;2022-07-15T00:39:30;15.50;99.90
18444;DHT22;9350;53.176;8.194;2022-07-15T00:41:57;15.50;99.90
18444;DHT22;9350;53.176;8.194;2022-07-15T00:44:24;15.50;99.90
18444;DHT22;9350;53.176;8.194;2022-07-15T00:46:51;15.40;99.90
18444;DHT22;9350;53.176;8.194;2022-07-15T00:49:19;15.50;99.90
18444;DHT22;9350;53.176;8.194;2022-07-15T00:51:49;15.50;99.90
18444;DHT22;9350;53.176;8.194;2022-07-15T00:54:22;15.60;99.90
18444;DHT22;9350;53.176;8.194;2022-07-15T00:56:51;15.70;99.90
18444;DHT22;9350;53.176;8.194;2022-07-15T00:59:19;15.70;99.90
18444;DHT22;9350;53.176;8.194;2022-07-15T01:01:48;15.80;99.90
18444;DHT22;9350;53.176;8.194;2022-07-15T01:04:17;15.80;99.90
18444;DHT22;9350;53.176;8.194;2022-07-15T01:06:45;15.80;99.90
18444;DHT22;9350;53.176;8.194;2022-07-15T01:09:12;15.80;99.90
18444;DHT22;9350;53.176;8.194;2022-07-15T01:11:39;15.80;99.90
18444;DHT22;9350;53.176;8.194;2022-07-15T01:14:06;15.80;99.90
18444;DHT22;9350;53.176;8.194;2022-07-15T01:16:33;15.80;99.90
18444;DHT22;9350;53.176;8.194;2022-07-15T01:19:00;15.70;99.90
18444;DHT22;9350;53.176;8.194;2022-07-15T01:21:28;15.60;99.90
18444;DHT22;9350;53.176;8.194;2022-07-15T01:23:55;15.70;99.90
18444;DHT22;9350;53.176;8.194;2022-07-15T01:26:22;15.70;99.90
18444;DHT22;9350;53.176;8.194;2022-07-15T01:28:49;15.60;99.90
18444;DHT22;9350;53.176;8.194;2022-07-15T01:31:15;15.60;99.90
18444;DHT22;9350;53.176;8.194;2022-07-15T01:33:42;15.60;99.90
18444;DHT22;9350;53.176;8.194;2022-07-15T01:36:09;15.60;99.90
18444;DHT22;9350;53.176;8.194;2022-07-15T01:38:37;15.60;99.90
18444;DHT22;9350;53.176;8.194;2022-07-15T01:41:04;15.60;99.90
18444;DHT22;9350;53.176;8.194;2022-07-15T01:43:31;15.50;99.90
18444;DHT22;9350;53.176;8.194;2022-07-15T01:45:57;15.60;99.90
18444;DHT22;9350;53.176;8.194;2022-07-15T01:48:24;15.50;99.90
18444;DHT22;9350;53.176;8.194;2022-07-15T01:51:08;15.50;99.90
18444;DHT22;9350;53.176;8.194;2022-07-15T01:53:36;15.50;99.90
18444;DHT22;9350;53.176;8.194;2022-07-15T01:56:03;15.50;99.90
18444;DHT22;9350;53.176;8.194;2022-07-15T01:58:30;15.50;99.90
18444;DHT22;9350;53.176;8.194;2022-07-15T02:00:57;15.50;99.90
18444;DHT22;9350;53.176;8.194;2022-07-15T02:03:24;15.50;99.90
18444;DHT22;9350;53.176;8.194;2022-07-15T02:05:52;15.60;99.90
18444;DHT22;9350;53.176;8.194;2022-07-15T02:08:18;15.60;99.90
18444;DHT22;9350;53.176;8.194;2022-07-15T02:10:46;15.60;99.90
18444;DHT22;9350;53.176;8.194;2022-07-15T02:13:14;15.50;99.90
18444;DHT22;9350;53.176;8.194;2022-07-15T02:15:41;15.50;99.90
18444;DHT22;9350;53.176;8.194;2022-07-15T02:18:08;15.60;99.90
18444;DHT22;9350;53.176;8.194;2022-07-15T02:20:35;15.50;99.90
18444;DHT22;9350;53.176;8.194;2022-07-15T02:23:02;15.50;99.90
18444;DHT22;9350;53.176;8.194;2022-07-15T02:25:31;15.40;99.90
18444;DHT22;9350;53.176;8.194;2022-07-15T02:28:00;15.40;99.90
18444;DHT22;9350;53.176;8.194;2022-07-15T02:30:30;15.40;99.90
18444;DHT22;9350;53.176;8.194;2022-07-15T02:32:57;15.30;99.90
18444;DHT22;9350;53.176;8.194;2022-07-15T02:35:24;15.20;99.90
18444;DHT22;9350;53.176;8.194;2022-07-15T02:37:51;15.20;99.90
18444;DHT22;9350;53.176;8.194;2022-07-15T02:40:17;15.30;99.90
18444;DHT22;9350;53.176;8.194;2022-07-15T02:42:46;15.30;99.90
18444;DHT22;9350;53.176;8.194;2022-07-15T02:45:15;15.30;99.90
18444;DHT22;9350;53.176;8.194;2022-07-15T02:47:42;15.30;99.90
18444;DHT22;9350;53.176;8.194;2022-07-15T02:50:08;15.30;99.90
18444;DHT22;9350;53.176;8.194;2022-07-15T02:52:35;15.40;99.90
18444;DHT22;9350;53.176;8.194;2022-07-15T02:55:03;15.50;99.90
18444;DHT22;9350;53.176;8.194;2022-07-15T02:57:30;15.40;99.90
18444;DHT22;9350;53.176;8.194;2022-07-15T02:59:56;15.50;99.90
18444;DHT22;9350;53.176;8.194;2022-07-15T03:02:25;15.40;99.90
18444;DHT22;9350;53.176;8.194;2022-07-15T03:04:51;15.40;99.90
18444;DHT22;9350;53.176;8.194;2022-07-15T03:07:18;15.40;99.90
18444;DHT22;9350;53.176;8.194;2022-07-15T03:09:45;15.40;99.90
18444;DHT22;9350;53.176;8.194;2022-07-15T03:12:12;15.40;99.90
18444;DHT22;9350;53.176;8.194;2022-07-15T03:14:39;15.30;99.90
18444;DHT22;9350;53.176;8.194;2022-07-15T03:17:06;15.20;99.90
18444;DHT22;9350;53.176;8.194;2022-07-15T03:19:35;15.10;99.90
18444;DHT22;9350;53.176;8.194;2022-07-15T03:22:02;15.00;99.90
18444;DHT22;9350;53.176;8.194;2022-07-15T03:24:29;15.00;99.90
18444;DHT22;9350;53.176;8.194;2022-07-15T03:26:55;14.90;99.90
18444;DHT22;9350;53.176;8.194;2022-07-15T03:29:22;15.00;99.90
18444;DHT22;9350;53.176;8.194;2022-07-15T03:31:50;15.00;99.90
18444;DHT22;9350;53.176;8.194;2022-07-15T03:34:17;14.90;99.90
18444;DHT22;9350;53.176;8.194;2022-07-15T03:36:45;15.00;99.90
18444;DHT22;9350;53.176;8.194;2022-07-15T03:39:12;15.00;99.90
18444;DHT22;9350;53.176;8.194;2022-07-15T03:41:39;15.00;99.90
18444;DHT22;9350;53.176;8.194;2022-07-15T03:44:06;15.00;99.90
18444;DHT22;9350;53.176;8.194;2022-07-15T03:46:33;15.10;99.90
18444;DHT22;9350;53.176;8.194;2022-07-15T03:49:00;15.00;99.90
18444;DHT22;9350;53.176;8.194;2022-07-15T03:51:27;15.10;99.90
18444;DHT22;9350;53.176;8.194;2022-07-15T03:53:57;15.10;99.90
18444;DHT22;9350;53.176;8.194;2022-07-15T03:56:24;15.20;99.90
18444;DHT22;9350;53.176;8.194;2022-07-15T03:58:51;15.10;99.90
18444;DHT22;9350;53.176;8.194;2022-07-15T04:01:18;15.20;99.90
18444;DHT22;9350;53.176;8.194;2022-07-15T04:03:46;15.30;99.90
18444;DHT22;9350;53.176;8.194;2022-07-15T04:06:13;15.30;99.90
18444;DHT22;9350;53.176;8.194;2022-07-15T04:08:40;15.20;99.90
18444;DHT22;9350;53.176;8.194;2022-07-15T04:11:09;15.30;99.90
18444;DHT22;9350;53.176;8.194;2022-07-15T04:13:36;15.20;99.90
18444;DHT22;9350;53.176;8.194;2022-07-15T04:16:04;15.20;99.90
18444;DHT22;9350;53.176;8.194;2022-07-15T04:18:31;15.10;99.90
18444;DHT22;9350;53.176;8.194;2022-07-15T04:20:58;15.20;99.90
18444;DHT22;9350;53.176;8.194;2022-07-15T04:23:25;15.20;99.90
18444;DHT22;9350;53.176;8.194;2022-07-15T04:25:52;15.30;99.90
18444;DHT22;9350;53.176;8.194;2022-07-15T04:28:20;15.30;99.90
18444;DHT22;9350;53.176;8.194;2022-07-15T04:30:47;15.40;99.90
18444;DHT22;9350;53.176;8.194;2022-07-15T04:33:14;15.40;99.90
18444;DHT22;9350;53.176;8.194;2022-07-15T04:35:41;15.40;99.90
18444;DHT22;9350;53.176;8.194;2022-07-15T04:38:08;15.50;99.90
18444;DHT22;9350;53.176;8.194;2022-07-15T04:40:36;15.50;99.90
18444;DHT22;9350;53.176;8.194;2022-07-15T04:43:04;15.40;99.90
18444;DHT22;9350;53.176;8.194;2022-07-15T04:45:32;15.40;99.90
18444;DHT22;9350;53.176;8.194;2022-07-15T04:47:59;15.40;99.90
18444;DHT22;9350;53.176;8.194;2022-07-15T04:50:26;15.40;99.90
18444;DHT22;9350;53.176;8.194;2022-07-15T04:53:10;15.40;99.90
18444;DHT22;9350;53.176;8.194;2022-07-15T04:55:37;15.40;99.90
18444;DHT22;9350;53.176;8.194;2022-07-15T04:58:04;15.40;99.90
18444;DHT22;9350;53.176;8.194;2022-07-15T05:00:32;15.30;99.90
18444;DHT22;9350;53.176;8.194;2022-07-15T05:02:59;15.40;99.90
18444;DHT22;9350;53.176;8.194;2022-07-15T05:05:25;15.40;99.90
18444;DHT22;9350;53.176;8.194;2022-07-15T05:07:52;15.40;99.90
18444;DHT22;9350;53.176;8.194;2022-07-15T05:10:19;15.60;99.90
18444;DHT22;9350;53.176;8.194;2022-07-15T05:12:46;15.70;99.90
18444;DHT22;9350;53.176;8.194;2022-07-15T05:15:12;15.70;99.90
18444;DHT22;9350;53.176;8.194;2022-07-15T05:17:41;15.60;99.90
18444;DHT22;9350;53.176;8.194;2022-07-15T05:20:09;15.80;99.90
18444;DHT22;9350;53.176;8.194;2022-07-15T05:22:35;15.70;99.90
18444;DHT22;9350;53.176;8.194;2022-07-15T05:25:02;15.70;99.90
18444;DHT22;9350;53.176;8.194;2022-07-15T05:27:30;15.70;99.90
18444;DHT22;9350;53.176;8.194;2022-07-15T05:29:57;15.80;99.90
18444;DHT22;9350;53.176;8.194;2022-07-15T05:32:23;15.80;99.90
18444;DHT22;9350;53.176;8.194;2022-07-15T05:34:51;15.90;99.90
18444;DHT22;9350;53.176;8.194;2022-07-15T05:37:18;15.90;99.90
18444;DHT22;9350;53.176;8.194;2022-07-15T05:39:45;15.90;99.90
18444;DHT22;9350;53.176;8.194;2022-07-15T05:42:19;15.90;99.90
18444;DHT22;9350;53.176;8.194;2022-07-15T05:44:46;16.00;99.90
18444;DHT22;9350;53.176;8.194;2022-07-15T05:47:13;16.00;99.90
18444;DHT22;9350;53.176;8.194;2022-07-15T05:49:40;16.00;99.90
18444;DHT22;9350;53.176;8.194;2022-07-15T05:52:08;16.00;99.90
18444;DHT22;9350;53.176;8.194;2022-07-15T05:54:35;15.90;99.90
18444;DHT22;9350;53.176;8.194;2022-07-15T05:57:02;15.80;99.90
18444;DHT22;9350;53.176;8.194;2022-07-15T05:59:29;15.90;99.90
18444;DHT22;9350;53.176;8.194;2022-07-15T06:01:57;16.00;99.90
18444;DHT22;9350;53.176;8.194;2022-07-15T06:04:24;15.90;99.90
18444;DHT22;9350;53.176;8.194;2022-07-15T06:06:52;15.90;99.90
18444;DHT22;9350;53.176;8.194;2022-07-15T06:09:20;15.90;99.90
18444;DHT22;9350;53.176;8.194;2022-07-15T06:11:47;15.90;99.90
18444;DHT22;9350;53.176;8.194;2022-07-15T06:14:14;15.90;99.90
18444;DHT22;9350;53.176;8.194;2022-07-15T06:16:41;16.00;99.90
18444;DHT22;9350;53.176;8.194;2022-07-15T06:19:08;16.00;99.90
18444;DHT22;9350;53.176;8.194;2022-07-15T06:21:36;16.00;99.90
18444;DHT22;9350;53.176;8.194;2022-07-15T06:24:03;16.10;99.90
18444;DHT22;9350;53.176;8.194;2022-07-15T06:26:31;16.00;99.90
18444;DHT22;9350;53.176;8.194;2022-07-15T06:28:58;16.10;99.90
18444;DHT22;9350;53.176;8.194;2022-07-15T06:31:25;16.10;99.90
18444;DHT22;9350;53.176;8.194;2022-07-15T06:33:52;16.10;99.90
18444;DHT22;9350;53.176;8.194;2022-07-15T06:36:18;16.10;99.90
18444;DHT22;9350;53.176;8.194;2022-07-15T06:38:45;16.20;99.90
18444;DHT22;9350;53.176;8.194;2022-07-15T06:41:15;16.10;99.90
18444;DHT22;9350;53.176;8.194;2022-07-15T06:43:43;16.00;99.90
18444;DHT22;9350;53.176;8.194;2022-07-15T06:46:11;16.10;99.90
18444;DHT22;9350;53.176;8.194;2022-07-15T06:48:38;16.10;99.90
18444;DHT22;9350;53.176;8.194;2022-07-15T06:51:05;16.10;99.90
18444;DHT22;9350;53.176;8.194;2022-07-15T06:53:31;16.10;99.90
18444;DHT22;9350;53.176;8.194;2022-07-15T06:55:58;16.00;99.90
18444;DHT22;9350;53.176;8.194;2022-07-15T06:58:25;16.00;99.90
18444;DHT22;9350;53.176;8.194;2022-07-15T07:00:53;16.00;99.90
18444;DHT22;9350;53.176;8.194;2022-07-15T07:03:20;15.90;99.90
18444;DHT22;9350;53.176;8.194;2022-07-15T07:05:46;16.10;99.90
18444;DHT22;9350;53.176;8.194;2022-07-15T07:08:13;16.10;99.90
18444;DHT22;9350;53.176;8.194;2022-07-15T07:10:40;16.10;99.90
18444;DHT22;9350;53.176;8.194;2022-07-15T07:13:07;16.00;99.90
18444;DHT22;9350;53.176;8.194;2022-07-15T07:15:34;15.90;99.90
18444;DHT22;9350;53.176;8.194;2022-07-15T07:18:02;16.00;99.90
18444;DHT22;9350;53.176;8.194;2022-07-15T07:20:29;16.00;99.90
18444;DHT22;9350;53.176;8.194;2022-07-15T07:22:55;16.00;99.90
18444;DHT22;9350;53.176;8.194;2022-07-15T07:25:23;16.20;99.90
18444;DHT22;9350;53.176;8.194;2022-07-15T07:27:50;16.20;99.90
18444;DHT22;9350;53.176;8.194;2022-07-15T07:30:16;16.20;99.90
18444;DHT22;9350;53.176;8.194;2022-07-15T07:32:43;16.20;99.90
18444;DHT22;9350;53.176;8.194;2022-07-15T07:35:11;16.20;99.90
18444;DHT22;9350;53.176;8.194;2022-07-15T07:37:38;16.30;99.90
18444;DHT22;9350;53.176;8.194;2022-07-15T07:40:07;16.50;99.90
18444;DHT22;9350;53.176;8.194;2022-07-15T07:42:34;16.60;99.90
18444;DHT22;9350;53.176;8.194;2022-07-15T07:45:01;16.40;99.90
18444;DHT22;9350;53.176;8.194;2022-07-15T07:47:28;16.50;99.90
18444;DHT22;9350;53.176;8.194;2022-07-15T07:49:54;16.70;99.90
18444;DHT22;9350;53.176;8.194;2022-07-15T07:52:23;16.70;99.90
18444;DHT22;9350;53.176;8.194;2022-07-15T07:54:49;16.90;99.90
18444;DHT22;9350;53.176;8.194;2022-07-15T07:57:16;17.00;99.90
18444;DHT22;9350;53.176;8.194;2022-07-15T07:59:43;17.00;99.90
18444;DHT22;9350;53.176;8.194;2022-07-15T08:02:09;17.00;99.90
18444;DHT22;9350;53.176;8.194;2022-07-15T08:04:36;17.10;99.90
18444;DHT22;9350;53.176;8.194;2022-07-15T08:07:03;17.20;99.90
18444;DHT22;9350;53.176;8.194;2022-07-15T08:09:33;17.10;99.90
18444;DHT22;9350;53.176;8.194;2022-07-15T08:11:59;17.00;99.90
18444;DHT22;9350;53.176;8.194;2022-07-15T08:14:26;17.00;99.90
18444;DHT22;9350;53.176;8.194;2022-07-15T08:16:54;17.10;99.90
18444;DHT22;9350;53.176;8.194;2022-07-15T08:19:21;17.10;99.90
18444;DHT22;9350;53.176;8.194;2022-07-15T08:21:47;17.20;99.90
18444;DHT22;9350;53.176;8.194;2022-07-15T08:24:14;17.20;99.90
18444;DHT22;9350;53.176;8.194;2022-07-15T08:26:43;17.20;99.90
18444;DHT22;9350;53.176;8.194;2022-07-15T08:29:09;17.30;99.90
18444;DHT22;9350;53.176;8.194;2022-07-15T08:31:37;17.30;99.90
18444;DHT22;9350;53.176;8.194;2022-07-15T08:34:05;17.30;99.90
18444;DHT22;9350;53.176;8.194;2022-07-15T08:36:33;17.30;99.90
18444;DHT22;9350;53.176;8.194;2022-07-15T08:39:00;17.40;99.90
18444;DHT22;9350;53.176;8.194;2022-07-15T08:41:27;17.30;99.90
18444;DHT22;9350;53.176;8.194;2022-07-15T08:43:55;17.30;99.90
18444;DHT22;9350;53.176;8.194;2022-07-15T08:46:23;17.30;99.90
18444;DHT22;9350;53.176;8.194;2022-07-15T08:48:51;17.40;99.90
18444;DHT22;9350;53.176;8.194;2022-07-15T08:51:21;17.50;99.90
18444;DHT22;9350;53.176;8.194;2022-07-15T08:53:50;17.60;99.90
18444;DHT22;9350;53.176;8.194;2022-07-15T08:56:17;17.80;99.90
18444;DHT22;9350;53.176;8.194;2022-07-15T08:58:45;17.90;99.90
18444;DHT22;9350;53.176;8.194;2022-07-15T09:01:14;17.80;99.90
18444;DHT22;9350;53.176;8.194;2022-07-15T09:03:41;17.70;99.90
18444;DHT22;9350;53.176;8.194;2022-07-15T09:06:08;17.60;99.90
18444;DHT22;9350;53.176;8.194;2022-07-15T09:08:35;17.60;99.90
18444;DHT22;9350;53.176;8.194;2022-07-15T09:11:01;17.40;99.90
18444;DHT22;9350;53.176;8.194;2022-07-15T09:13:30;17.40;99.90
18444;DHT22;9350;53.176;8.194;2022-07-15T09:15:59;17.30;99.90
18444;DHT22;9350;53.176;8.194;2022-07-15T09:18:29;17.20;99.90
18444;DHT22;9350;53.176;8.194;2022-07-15T09:20:57;17.10;99.90
18444;DHT22;9350;53.176;8.194;2022-07-15T09:23:25;17.10;99.90
18444;DHT22;9350;53.176;8.194;2022-07-15T09:25:58;17.10;99.90
18444;DHT22;9350;53.176;8.194;2022-07-15T09:28:39;17.00;99.90
18444;DHT22;9350;53.176;8.194;2022-07-15T09:31:06;16.90;99.90
18444;DHT22;9350;53.176;8.194;2022-07-15T09:34:06;16.80;99.90
18444;DHT22;9350;53.176;8.194;2022-07-15T09:36:33;16.50;99.90
18444;DHT22;9350;53.176;8.194;2022-07-15T09:39:01;16.30;99.90
18444;DHT22;9350;53.176;8.194;2022-07-15T09:41:31;16.20;99.90
18444;DHT22;9350;53.176;8.194;2022-07-15T09:44:01;16.10;99.90
18444;DHT22;9350;53.176;8.194;2022-07-15T09:46:39;16.10;99.90
18444;DHT22;9350;53.176;8.194;2022-07-15T09:49:09;16.20;99.90
18444;DHT22;9350;53.176;8.194;2022-07-15T09:51:47;16.20;99.90
18444;DHT22;9350;53.176;8.194;2022-07-15T09:54:14;16.30;99.90
18444;DHT22;9350;53.176;8.194;2022-07-15T09:56:41;16.30;99.90
18444;DHT22;9350;53.176;8.194;2022-07-15T09:59:08;16.30;99.90
18444;DHT22;9350;53.176;8.194;2022-07-15T10:01:35;16.30;99.90
18444;DHT22;9350;53.176;8.194;2022-07-15T10:04:03;16.30;99.90
18444;DHT22;9350;53.176;8.194;2022-07-15T10:06:33;16.30;99.90
18444;DHT22;9350;53.176;8.194;2022-07-15T10:09:02;16.30;99.90
18444;DHT22;9350;53.176;8.194;2022-07-15T10:11:30;16.40;99.90
18444;DHT22;9350;53.176;8.194;2022-07-15T10:14:34;16.50;99.90
18444;DHT22;9350;53.176;8.194;2022-07-15T10:20:46;16.70;99.90
18444;DHT22;9350;53.176;8.194;2022-07-15T10:26:22;16.90;99.90
18444;DHT22;9350;53.176;8.194;2022-07-15T10:28:54;17.00;99.90
18444;DHT22;9350;53.176;8.194;2022-07-15T10:31:23;17.10;99.90
18444;DHT22;9350;53.176;8.194;2022-07-15T10:34:17;17.20;99.90
18444;DHT22;9350;53.176;8.194;2022-07-15T10:37:03;17.30;99.90
18444;DHT22;9350;53.176;8.194;2022-07-15T10:39:54;17.40;99.90
18444;DHT22;9350;53.176;8.194;2022-07-15T10:42:24;17.50;99.90
18444;DHT22;9350;53.176;8.194;2022-07-15T10:45:06;17.60;99.90
18444;DHT22;9350;53.176;8.194;2022-07-15T10:47:34;17.60;99.90
18444;DHT22;9350;53.176;8.194;2022-07-15T10:50:37;17.70;99.90
18444;DHT22;9350;53.176;8.194;2022-07-15T10:53:20;17.70;99.90
18444;DHT22;9350;53.176;8.194;2022-07-15T10:55:48;17.80;99.90
18444;DHT22;9350;53.176;8.194;2022-07-15T10:58:16;17.70;99.90
18444;DHT22;9350;53.176;8.194;2022-07-15T11:00:44;17.70;99.90
18444;DHT22;9350;53.176;8.194;2022-07-15T11:03:12;17.70;99.90
18444;DHT22;9350;53.176;8.194;2022-07-15T11:06:04;17.80;99.90
18444;DHT22;9350;53.176;8.194;2022-07-15T11:08:50;17.90;99.90
18444;DHT22;9350;53.176;8.194;2022-07-15T11:11:49;17.90;99.90
18444;DHT22;9350;53.176;8.194;2022-07-15T11:14:50;17.90;99.90
18444;DHT22;9350;53.176;8.194;2022-07-15T11:17:20;18.00;99.90
18444;DHT22;9350;53.176;8.194;2022-07-15T11:19:49;17.90;99.90
18444;DHT22;9350;53.176;8.194;2022-07-15T11:22:17;18.00;99.90
18444;DHT22;9350;53.176;8.194;2022-07-15T11:24:44;18.10;99.90
18444;DHT22;9350;53.176;8.194;2022-07-15T11:27:13;18.20;99.90
18444;DHT22;9350;53.176;8.194;2022-07-15T11:29:41;18.20;99.90
18444;DHT22;9350;53.176;8.194;2022-07-15T11:32:08;18.30;99.90
18444;DHT22;9350;53.176;8.194;2022-07-15T11:34:39;18.40;99.90
18444;DHT22;9350;53.176;8.194;2022-07-15T11:37:06;18.50;99.90
18444;DHT22;9350;53.176;8.194;2022-07-15T11:39:33;18.60;99.90
18444;DHT22;9350;53.176;8.194;2022-07-15T11:42:00;18.60;99.90
18444;DHT22;9350;53.176;8.194;2022-07-15T11:44:47;18.60;99.90
18444;DHT22;9350;53.176;8.194;2022-07-15T11:47:14;18.50;99.90
18444;DHT22;9350;53.176;8.194;2022-07-15T11:49:41;18.30;99.90
18444;DHT22;9350;53.176;8.194;2022-07-15T11:52:10;18.20;99.90
18444;DHT22;9350;53.176;8.194;2022-07-15T11:54:39;17.90;99.90
18444;DHT22;9350;53.176;8.194;2022-07-15T11:57:07;17.70;99.90
18444;DHT22;9350;53.176;8.194;2022-07-15T11:59:35;17.80;99.90
18444;DHT22;9350;53.176;8.194;2022-07-15T12:02:04;17.80;99.90
18444;DHT22;9350;53.176;8.194;2022-07-15T12:04:32;17.90;99.90
18444;DHT22;9350;53.176;8.194;2022-07-15T12:06:58;17.90;99.90
18444;DHT22;9350;53.176;8.194;2022-07-15T12:09:25;18.00;99.90
18444;DHT22;9350;53.176;8.194;2022-07-15T12:11:52;18.10;99.90
18444;DHT22;9350;53.176;8.194;2022-07-15T12:14:21;18.30;99.90
18444;DHT22;9350;53.176;8.194;2022-07-15T12:16:49;18.50;99.90
18444;DHT22;9350;53.176;8.194;2022-07-15T12:19:20;18.60;99.90
18444;DHT22;9350;53.176;8.194;2022-07-15T12:21:48;18.60;99.90
18444;DHT22;9350;53.176;8.194;2022-07-15T12:24:16;18.70;99.90
18444;DHT22;9350;53.176;8.194;2022-07-15T12:26:56;18.70;99.90
18444;DHT22;9350;53.176;8.194;2022-07-15T12:29:24;18.80;99.90
18444;DHT22;9350;53.176;8.194;2022-07-15T12:31:53;18.80;99.90
18444;DHT22;9350;53.176;8.194;2022-07-15T12:37:08;18.70;99.90
18444;DHT22;9350;53.176;8.194;2022-07-15T12:39:53;18.70;99.90
18444;DHT22;9350;53.176;8.194;2022-07-15T12:42:20;18.70;99.90
18444;DHT22;9350;53.176;8.194;2022-07-15T12:45:05;18.70;99.90
18444;DHT22;9350;53.176;8.194;2022-07-15T12:47:31;18.50;99.90
18444;DHT22;9350;53.176;8.194;2022-07-15T12:50:00;18.50;99.90
18444;DHT22;9350;53.176;8.194;2022-07-15T12:52:32;18.40;99.90
18444;DHT22;9350;53.176;8.194;2022-07-15T12:55:11;18.40;99.90
18444;DHT22;9350;53.176;8.194;2022-07-15T12:57:38;18.40;99.90
18444;DHT22;9350;53.176;8.194;2022-07-15T13:00:09;18.40;99.90
18444;DHT22;9350;53.176;8.194;2022-07-15T13:03:01;18.40;99.90
18444;DHT22;9350;53.176;8.194;2022-07-15T13:05:31;18.50;99.90
18444;DHT22;9350;53.176;8.194;2022-07-15T13:07:59;18.50;99.90
18444;DHT22;9350;53.176;8.194;2022-07-15T13:10:27;18.60;99.90
18444;DHT22;9350;53.176;8.194;2022-07-15T13:12:54;18.70;99.90
18444;DHT22;9350;53.176;8.194;2022-07-15T13:15:21;18.80;99.90
18444;DHT22;9350;53.176;8.194;2022-07-15T13:17:48;19.00;99.90
18444;DHT22;9350;53.176;8.194;2022-07-15T13:20:15;19.00;99.90
18444;DHT22;9350;53.176;8.194;2022-07-15T13:22:43;19.10;99.90
18444;DHT22;9350;53.176;8.194;2022-07-15T13:25:09;19.10;99.90
18444;DHT22;9350;53.176;8.194;2022-07-15T13:27:37;19.10;99.90
18444;DHT22;9350;53.176;8.194;2022-07-15T13:30:04;19.10;99.90
18444;DHT22;9350;53.176;8.194;2022-07-15T13:32:32;19.20;99.90
18444;DHT22;9350;53.176;8.194;2022-07-15T13:34:59;19.30;99.90
18444;DHT22;9350;53.176;8.194;2022-07-15T13:37:25;19.30;99.90
18444;DHT22;9350;53.176;8.194;2022-07-15T13:39:54;19.30;99.90
18444;DHT22;9350;53.176;8.194;2022-07-15T13:42:21;19.30;99.90
18444;DHT22;9350;53.176;8.194;2022-07-15T13:44:49;19.30;99.90
18444;DHT22;9350;53.176;8.194;2022-07-15T13:47:16;19.20;99.90
18444;DHT22;9350;53.176;8.194;2022-07-15T13:49:43;19.20;99.90
18444;DHT22;9350;53.176;8.194;2022-07-15T13:52:28;19.00;99.90
18444;DHT22;9350;53.176;8.194;2022-07-15T13:54:56;18.90;99.90
18444;DHT22;9350;53.176;8.194;2022-07-15T13:57:22;18.70;99.90
18444;DHT22;9350;53.176;8.194;2022-07-15T13:59:49;18.70;99.90
18444;DHT22;9350;53.176;8.194;2022-07-15T14:02:16;18.50;99.90
18444;DHT22;9350;53.176;8.194;2022-07-15T14:04:42;18.30;99.90
18444;DHT22;9350;53.176;8.194;2022-07-15T14:07:09;18.00;99.90
18444;DHT22;9350;53.176;8.194;2022-07-15T14:09:36;17.90;99.90
18444;DHT22;9350;53.176;8.194;2022-07-15T14:12:04;17.80;99.90
18444;DHT22;9350;53.176;8.194;2022-07-15T14:14:34;17.70;99.90
18444;DHT22;9350;53.176;8.194;2022-07-15T14:17:00;17.60;99.90
18444;DHT22;9350;53.176;8.194;2022-07-15T14:19:27;17.60;99.90
18444;DHT22;9350;53.176;8.194;2022-07-15T14:21:54;17.60;99.90
18444;DHT22;9350;53.176;8.194;2022-07-15T14:24:21;17.60;99.90
18444;DHT22;9350;53.176;8.194;2022-07-15T14:26:48;17.50;99.90
18444;DHT22;9350;53.176;8.194;2022-07-15T14:29:16;17.40;99.90
18444;DHT22;9350;53.176;8.194;2022-07-15T14:31:42;17.50;99.90
18444;DHT22;9350;53.176;8.194;2022-07-15T14:34:09;17.50;99.90
18444;DHT22;9350;53.176;8.194;2022-07-15T14:36:36;17.50;99.90
18444;DHT22;9350;53.176;8.194;2022-07-15T14:39:03;17.60;99.90
18444;DHT22;9350;53.176;8.194;2022-07-15T14:41:30;17.60;99.90
18444;DHT22;9350;53.176;8.194;2022-07-15T14:43:57;17.60;99.90
18444;DHT22;9350;53.176;8.194;2022-07-15T14:46:25;17.70;99.90
18444;DHT22;9350;53.176;8.194;2022-07-15T14:48:52;17.70;99.90
18444;DHT22;9350;53.176;8.194;2022-07-15T14:51:19;17.60;99.90
18444;DHT22;9350;53.176;8.194;2022-07-15T14:53:46;17.60;99.90
18444;DHT22;9350;53.176;8.194;2022-07-15T14:56:13;17.70;99.90
18444;DHT22;9350;53.176;8.194;2022-07-15T14:58:39;17.70;99.90
18444;DHT22;9350;53.176;8.194;2022-07-15T15:01:06;17.70;99.90
18444;DHT22;9350;53.176;8.194;2022-07-15T15:03:34;17.80;99.90
18444;DHT22;9350;53.176;8.194;2022-07-15T15:06:01;17.90;99.90
18444;DHT22;9350;53.176;8.194;2022-07-15T15:08:28;17.90;99.90
18444;DHT22;9350;53.176;8.194;2022-07-15T15:10:54;17.90;99.90
18444;DHT22;9350;53.176;8.194;2022-07-15T15:13:21;17.80;99.90
18444;DHT22;9350;53.176;8.194;2022-07-15T15:15:48;17.90;99.90
18444;DHT22;9350;53.176;8.194;2022-07-15T15:18:15;18.00;99.90
18444;DHT22;9350;53.176;8.194;2022-07-15T15:20:43;18.00;99.90
18444;DHT22;9350;53.176;8.194;2022-07-15T15:23:10;18.10;99.90
18444;DHT22;9350;53.176;8.194;2022-07-15T15:25:36;18.10;99.90
18444;DHT22;9350;53.176;8.194;2022-07-15T15:28:20;18.10;99.90
18444;DHT22;9350;53.176;8.194;2022-07-15T15:30:47;18.20;99.90
18444;DHT22;9350;53.176;8.194;2022-07-15T15:33:14;18.30;99.90
18444;DHT22;9350;53.176;8.194;2022-07-15T15:35:41;18.30;99.90
18444;DHT22;9350;53.176;8.194;2022-07-15T15:38:09;18.30;99.90
18444;DHT22;9350;53.176;8.194;2022-07-15T15:40:36;18.30;99.90
18444;DHT22;9350;53.176;8.194;2022-07-15T15:43:03;18.30;99.90
18444;DHT22;9350;53.176;8.194;2022-07-15T15:45:30;18.30;99.90
18444;DHT22;9350;53.176;8.194;2022-07-15T15:47:57;18.40;99.90
18444;DHT22;9350;53.176;8.194;2022-07-15T15:50:23;18.40;99.90
18444;DHT22;9350;53.176;8.194;2022-07-15T15:52:50;18.30;99.90
18444;DHT22;9350;53.176;8.194;2022-07-15T15:55:18;18.40;99.90
18444;DHT22;9350;53.176;8.194;2022-07-15T15:57:45;18.40;99.90
18444;DHT22;9350;53.176;8.194;2022-07-15T16:00:12;18.30;99.90
18444;DHT22;9350;53.176;8.194;2022-07-15T16:02:39;18.30;99.90